Terminal Aerodrome Forecast
Issued by NWS Binghamton, NY

Home | Current Version | Previous Version | Text Only | Print | Product List | Glossary On
Versions: 1 2 3 4 5 6 7 8 9 10 11 12 13 14 15 16 17 18 19
000
FTUS41 KBGM 190911 AAA
TAFAVP
TAF AMD
KAVP 190911Z 1909/2006 21014G26KT P6SM -SHRA OVC020 WS020/21050KT
      TEMPO 1909/1911 26018G32KT 4SM -SHRA OVC015
     FM191100 27018G32KT P6SM OVC020
     FM191600 29020G34KT P6SM BKN035
     FM192200 29014G26KT P6SM SCT040 BKN070=

USA.gov is the U.S. government's official web portal to all federal, state and local government web resources and services.